createdAt,value
2022-09-02T00:01:01.785Z,22.43
2022-09-02T00:03:31.591Z,22.40
2022-09-02T00:05:58.569Z,22.37
2022-09-02T00:08:25.158Z,22.32
2022-09-02T00:10:52.361Z,22.28
2022-09-02T00:13:20.731Z,22.23
2022-09-02T00:15:49.049Z,22.19
2022-09-02T00:18:18.088Z,22.16
2022-09-02T00:20:47.480Z,22.13
2022-09-02T00:23:16.315Z,22.09
2022-09-02T00:25:45.344Z,22.04
2022-09-02T00:28:14.943Z,22.01
2022-09-02T00:30:42.676Z,21.98
2022-09-02T00:33:09.667Z,21.94
2022-09-02T00:35:36.505Z,21.92
2022-09-02T00:38:03.647Z,21.89
2022-09-02T00:40:30.810Z,21.88
2022-09-02T00:42:57.501Z,21.83
2022-09-02T00:45:24.772Z,21.81
2022-09-02T00:47:51.901Z,21.79
2022-09-02T00:50:24.290Z,21.75
2022-09-02T00:52:56.599Z,21.74
2022-09-02T00:55:27.677Z,21.72
2022-09-02T00:57:59.708Z,21.71
2022-09-02T01:00:35.637Z,21.69
2022-09-02T01:03:06.584Z,21.69
2022-09-02T01:05:38.618Z,21.68
2022-09-02T01:08:09.648Z,21.67
2022-09-02T01:10:36.851Z,21.66
2022-09-02T01:13:10.980Z,21.63
2022-09-02T01:15:43.495Z,21.63
2022-09-02T01:18:19.236Z,21.62
2022-09-02T01:20:46.447Z,21.61
2022-09-02T01:23:16.304Z,21.59
2022-09-02T01:25:43.107Z,21.58
2022-09-02T01:28:13.480Z,21.55
2022-09-02T01:30:45.496Z,21.54
2022-09-02T01:33:12.197Z,21.55
2022-09-02T01:35:39.004Z,21.56
2022-09-02T01:38:05.735Z,21.55
2022-09-02T01:40:32.589Z,21.54
2022-09-02T01:43:07.783Z,21.52
2022-09-02T01:45:36.574Z,21.54
2022-09-02T01:48:04.104Z,21.54
2022-09-02T01:50:31.585Z,21.54
2022-09-02T01:53:01.655Z,21.55
2022-09-02T01:55:28.151Z,21.54
2022-09-02T01:57:54.811Z,21.54
2022-09-02T02:00:22.128Z,21.54
2022-09-02T02:02:48.672Z,21.54
2022-09-02T02:05:15.888Z,21.55
2022-09-02T02:07:43.671Z,21.53
2022-09-02T02:10:11.666Z,21.54
2022-09-02T02:12:39.500Z,21.53
2022-09-02T02:15:08.699Z,21.52
2022-09-02T02:17:35.223Z,21.51
2022-09-02T02:20:01.785Z,21.49
2022-09-02T02:22:28.364Z,21.47
2022-09-02T02:24:54.940Z,21.45
2022-09-02T02:27:21.460Z,21.44
2022-09-02T02:29:48.018Z,21.43
2022-09-02T02:32:14.806Z,21.44
2022-09-02T02:34:41.298Z,21.46
2022-09-02T02:37:07.848Z,21.47
2022-09-02T02:39:34.324Z,21.47
2022-09-02T02:42:00.833Z,21.49
2022-09-02T02:44:29.359Z,21.51
2022-09-02T02:46:55.923Z,21.52
2022-09-02T02:49:23.223Z,21.53
2022-09-02T02:51:49.917Z,21.53
2022-09-02T02:54:16.597Z,21.53
2022-09-02T02:56:43.160Z,21.54
2022-09-02T02:59:09.659Z,21.53
2022-09-02T03:01:36.442Z,21.53
2022-09-02T03:04:03.397Z,21.52
2022-09-02T03:06:30.024Z,21.52
2022-09-02T03:08:56.967Z,21.52
2022-09-02T03:11:28.458Z,21.50
2022-09-02T03:13:55.663Z,21.51
2022-09-02T03:16:22.555Z,21.50
2022-09-02T03:18:50.620Z,21.49
2022-09-02T03:21:18.628Z,21.50
2022-09-02T03:23:46.419Z,21.51
2022-09-02T03:26:18.972Z,21.50
2022-09-02T03:28:47.534Z,21.51
2022-09-02T03:31:17.923Z,21.50
2022-09-02T03:33:44.849Z,21.51
2022-09-02T03:36:33.307Z,21.50
2022-09-02T03:38:59.849Z,21.55
2022-09-02T03:41:26.620Z,21.59
2022-09-02T03:43:53.155Z,21.58
2022-09-02T03:46:20.008Z,21.57
2022-09-02T03:48:46.993Z,21.55
2022-09-02T03:51:13.906Z,21.53
2022-09-02T03:53:40.494Z,21.52
2022-09-02T03:56:11.997Z,21.49
2022-09-02T03:58:40.327Z,21.50
2022-09-02T04:01:08.628Z,21.50
2022-09-02T04:03:35.122Z,21.49
2022-09-02T04:06:01.700Z,21.49
2022-09-02T04:08:28.268Z,21.48
2022-09-02T04:10:56.303Z,21.48
2022-09-02T04:13:23.000Z,21.48
2022-09-02T04:15:49.737Z,21.48
2022-09-02T04:18:17.283Z,21.50
2022-09-02T04:20:44.916Z,21.49
2022-09-02T04:23:12.045Z,21.51
2022-09-02T04:25:43.491Z,21.50
2022-09-02T04:28:10.316Z,21.52
2022-09-02T04:30:41.292Z,21.52
2022-09-02T04:33:07.778Z,21.54
2022-09-02T04:35:36.086Z,21.55
2022-09-02T04:38:03.088Z,21.58
2022-09-02T04:40:29.953Z,21.57
2022-09-02T04:42:56.540Z,21.55
2022-09-02T04:45:26.549Z,21.54
2022-09-02T04:47:55.754Z,21.54
2022-09-02T04:50:22.273Z,21.53
2022-09-02T04:52:48.770Z,21.50
2022-09-02T04:55:15.327Z,21.49
2022-09-02T04:57:42.440Z,21.47
2022-09-02T05:00:10.102Z,21.46
2022-09-02T05:02:36.682Z,21.46
2022-09-02T05:05:03.824Z,21.46
2022-09-02T05:07:31.026Z,21.47
2022-09-02T05:10:00.550Z,21.47
2022-09-02T05:12:28.061Z,21.50
2022-09-02T05:14:57.168Z,21.49
2022-09-02T05:17:23.968Z,21.52
2022-09-02T05:19:50.515Z,21.53
2022-09-02T05:22:17.275Z,21.57
2022-09-02T05:24:44.075Z,21.58
2022-09-02T05:27:10.720Z,21.61
2022-09-02T05:29:37.345Z,21.63
2022-09-02T05:32:04.344Z,21.66
2022-09-02T05:34:30.979Z,21.69
2022-09-02T05:36:57.490Z,21.71
2022-09-02T05:39:25.382Z,21.73
2022-09-02T05:41:51.911Z,21.73
2022-09-02T05:44:18.474Z,21.74
2022-09-02T05:46:48.732Z,21.76
2022-09-02T05:49:18.232Z,21.78
2022-09-02T05:51:51.008Z,21.77
2022-09-02T05:54:25.441Z,21.81
2022-09-02T05:56:54.596Z,21.86
2022-09-02T05:59:22.893Z,21.90
2022-09-02T06:01:50.773Z,21.92
2022-09-02T06:04:17.954Z,21.95
2022-09-02T06:06:44.901Z,21.98
2022-09-02T06:09:16.744Z,22.00
2022-09-02T06:11:46.088Z,22.04
2022-09-02T06:14:14.228Z,22.06
2022-09-02T06:16:42.229Z,22.06
2022-09-02T06:19:08.805Z,22.09
2022-09-02T06:21:36.683Z,22.11
2022-09-02T06:24:07.090Z,22.12
2022-09-02T06:26:34.114Z,22.16
2022-09-02T06:29:00.610Z,22.18
2022-09-02T06:31:27.319Z,22.21
2022-09-02T06:34:01.778Z,22.25
2022-09-02T06:36:31.414Z,22.30
2022-09-02T06:38:59.474Z,22.35
2022-09-02T06:41:29.691Z,22.41
2022-09-02T06:43:58.814Z,22.47
2022-09-02T06:46:29.875Z,22.55
2022-09-02T06:48:56.967Z,22.63
2022-09-02T06:51:33.699Z,22.69
2022-09-02T06:54:00.771Z,22.78
2022-09-02T06:56:27.480Z,22.85
2022-09-02T06:58:54.038Z,22.91
2022-09-02T07:01:24.188Z,22.99
2022-09-02T07:04:09.413Z,23.06
2022-09-02T07:06:38.305Z,23.13
2022-09-02T07:09:06.151Z,23.19
2022-09-02T07:11:33.371Z,23.25
2022-09-02T07:14:01.731Z,23.32
2022-09-02T07:16:34.119Z,23.38
2022-09-02T07:19:01.342Z,23.45
2022-09-02T07:21:29.395Z,23.51
2022-09-02T07:23:58.860Z,23.57
2022-09-02T07:26:25.924Z,23.65
2022-09-02T07:28:52.906Z,23.72
2022-09-02T07:31:19.912Z,23.77
2022-09-02T07:33:50.056Z,23.83
2022-09-02T07:36:17.213Z,23.91
2022-09-02T07:38:43.721Z,23.98
2022-09-02T07:41:10.746Z,24.05
2022-09-02T07:43:38.420Z,24.09
2022-09-02T07:46:06.111Z,24.17
2022-09-02T07:48:33.871Z,24.23
2022-09-02T07:51:01.205Z,24.30
2022-09-02T07:53:28.725Z,24.37
2022-09-02T07:55:55.223Z,24.43
2022-09-02T07:58:22.541Z,24.50
2022-09-02T08:00:50.630Z,24.54
2022-09-02T08:03:17.625Z,24.63
2022-09-02T08:05:47.000Z,24.70
2022-09-02T08:08:15.135Z,24.78
2022-09-02T08:10:42.473Z,24.85
2022-09-02T08:13:10.534Z,24.91
2022-09-02T08:15:37.395Z,24.97
2022-09-02T08:18:05.981Z,25.02
2022-09-02T08:20:33.075Z,25.08
2022-09-02T08:23:10.833Z,25.16
2022-09-02T08:25:38.661Z,25.26
2022-09-02T08:28:05.194Z,25.33
2022-09-02T08:30:31.842Z,25.41
2022-09-02T08:32:58.396Z,25.49
2022-09-02T08:35:24.923Z,25.54
2022-09-02T08:37:51.965Z,25.62
2022-09-02T08:40:24.834Z,25.69
2022-09-02T08:42:56.517Z,25.75
2022-09-02T08:45:32.796Z,25.81
2022-09-02T08:48:12.720Z,25.88
2022-09-02T08:50:42.904Z,25.93
2022-09-02T08:53:32.512Z,25.98
2022-09-02T08:56:01.218Z,26.03
2022-09-02T08:58:33.181Z,26.06
2022-09-02T09:01:07.844Z,26.11
2022-09-02T09:03:47.598Z,26.14
2022-09-02T09:06:30.176Z,26.18
2022-09-02T09:09:13.990Z,26.24
2022-09-02T09:11:52.154Z,26.32
2022-09-02T09:14:18.651Z,26.44
2022-09-02T09:16:59.822Z,26.49
2022-09-02T09:19:50.440Z,26.60
2022-09-02T09:22:21.199Z,26.71
2022-09-02T09:24:50.271Z,26.81
2022-09-02T09:27:19.932Z,26.91
2022-09-02T09:29:49.399Z,27.03
2022-09-02T09:32:29.317Z,27.08
2022-09-02T09:35:07.784Z,27.16
2022-09-02T09:37:50.155Z,27.22
2022-09-02T09:40:25.528Z,27.27
2022-09-02T09:42:57.962Z,27.33
2022-09-02T09:45:27.581Z,27.44
2022-09-02T09:48:19.260Z,27.53
2022-09-02T09:50:47.775Z,27.70
2022-09-02T09:53:24.695Z,27.83
2022-09-02T09:55:55.695Z,27.99
2022-09-02T09:58:37.018Z,28.04
2022-09-02T10:01:24.610Z,28.08
2022-09-02T10:04:00.978Z,28.16
2022-09-02T10:06:33.443Z,28.21
2022-09-02T10:09:20.170Z,28.25
2022-09-02T10:12:02.007Z,28.33
2022-09-02T10:14:47.835Z,28.38
2022-09-02T10:17:40.280Z,28.41
2022-09-02T10:20:22.665Z,28.44
2022-09-02T10:22:59.919Z,28.49
2022-09-02T10:25:34.157Z,28.56
2022-09-02T10:28:18.283Z,28.63
2022-09-02T10:30:59.819Z,28.76
2022-09-02T10:34:07.817Z,28.89
2022-09-02T10:36:52.462Z,29.06
2022-09-02T10:39:25.446Z,29.14
2022-09-02T10:41:58.533Z,29.22
2022-09-02T10:44:31.342Z,29.27
2022-09-02T10:47:14.883Z,29.35
2022-09-02T10:50:03.097Z,29.47
2022-09-02T10:52:35.607Z,29.62
2022-09-02T10:55:25.075Z,29.71
2022-09-02T10:58:01.084Z,29.75
2022-09-02T11:00:31.060Z,29.74
2022-09-02T11:03:12.858Z,29.66
2022-09-02T11:06:04.916Z,29.64
2022-09-02T11:08:38.575Z,29.57
2022-09-02T11:11:21.401Z,29.53
2022-09-02T11:14:02.242Z,29.50
2022-09-02T11:16:46.020Z,29.47
2022-09-02T11:19:32.868Z,29.45
2022-09-02T11:22:11.659Z,29.48
2022-09-02T11:25:16.593Z,29.48
2022-09-02T11:27:53.357Z,29.53
2022-09-02T11:30:22.326Z,29.58
2022-09-02T11:33:40.174Z,29.61
2022-09-02T11:36:07.005Z,29.77
2022-09-02T11:38:42.790Z,29.86
2022-09-02T11:41:34.116Z,29.92
2022-09-02T11:44:31.492Z,30.00
2022-09-02T11:47:01.237Z,30.09
2022-09-02T11:49:40.038Z,30.16
2022-09-02T11:55:06.299Z,30.30
2022-09-02T11:57:33.136Z,30.41
2022-09-02T11:59:59.564Z,30.47
2022-09-02T12:02:51.601Z,30.52
2022-09-02T12:05:30.313Z,30.62
2022-09-02T12:08:34.427Z,30.69
2022-09-02T12:11:04.831Z,30.79
2022-09-02T12:16:21.130Z,30.92
2022-09-02T12:18:54.120Z,30.98
2022-09-02T12:21:23.496Z,31.07
2022-09-02T12:23:55.920Z,31.14
2022-09-02T12:26:28.474Z,31.22
2022-09-02T12:29:10.976Z,31.32
2022-09-02T12:31:41.120Z,31.43
2022-09-02T12:34:25.972Z,31.45
2022-09-02T12:36:52.413Z,31.51
2022-09-02T12:39:24.965Z,31.47
2022-09-02T12:42:01.356Z,31.45
2022-09-02T12:44:52.778Z,31.42
2022-09-02T12:47:53.428Z,31.41
2022-09-02T12:50:53.760Z,31.40
2022-09-02T12:53:23.352Z,31.41
2022-09-02T12:56:04.333Z,31.37
2022-09-02T12:58:53.693Z,31.33
2022-09-02T13:01:38.923Z,31.37
2022-09-02T13:04:05.535Z,31.39
2022-09-02T13:06:53.838Z,31.36
2022-09-02T13:09:49.318Z,31.31
2022-09-02T13:12:40.435Z,31.31
2022-09-02T13:15:23.943Z,31.29
2022-09-02T13:18:18.274Z,31.29
2022-09-02T13:20:56.050Z,31.29
2022-09-02T13:23:49.006Z,31.23
2022-09-02T13:26:53.754Z,31.19
2022-09-02T13:30:01.105Z,31.14
2022-09-02T13:32:30.275Z,31.13
2022-09-02T13:35:02.196Z,31.10
2022-09-02T13:37:52.873Z,31.08
2022-09-02T13:40:36.113Z,31.04
2022-09-02T13:43:16.093Z,31.04
2022-09-02T13:45:43.917Z,31.03
2022-09-02T13:48:20.693Z,31.00
2022-09-02T13:50:52.257Z,31.02
2022-09-02T13:54:05.016Z,31.01
2022-09-02T13:56:15.468Z,31.04
2022-09-02T13:58:47.301Z,31.07
2022-09-02T14:01:32.786Z,31.06
2022-09-02T14:06:38.847Z,31.16
2022-09-02T14:09:08.543Z,31.21
2022-09-02T14:11:48.064Z,31.23
2022-09-02T14:14:16.419Z,31.28
2022-09-02T14:16:42.901Z,31.34
2022-09-02T14:19:10.953Z,31.40
2022-09-02T14:21:45.775Z,31.41
2022-09-02T14:24:15.073Z,31.43
2022-09-02T14:26:44.090Z,31.45
2022-09-02T14:29:16.025Z,31.47
2022-09-02T14:31:43.156Z,31.48
2022-09-02T14:34:39.243Z,31.43
2022-09-02T14:37:20.923Z,31.43
2022-09-02T14:39:54.832Z,31.40
2022-09-02T14:42:21.513Z,31.40
2022-09-02T14:44:48.089Z,31.36
2022-09-02T14:47:16.722Z,31.31
2022-09-02T14:49:53.458Z,31.22
2022-09-02T14:52:35.565Z,31.17
2022-09-02T14:55:03.403Z,31.18
2022-09-02T14:57:32.651Z,31.15
2022-09-02T15:00:02.185Z,31.12
2022-09-02T15:02:28.606Z,31.08
2022-09-02T15:04:56.591Z,31.03
2022-09-02T15:07:24.455Z,30.95
2022-09-02T15:09:51.401Z,30.89
2022-09-02T15:12:35.214Z,30.78
2022-09-02T15:15:01.797Z,30.78
2022-09-02T15:17:29.488Z,30.73
2022-09-02T15:19:56.654Z,30.70
2022-09-02T15:22:23.854Z,30.69
2022-09-02T15:24:51.549Z,30.71
2022-09-02T15:27:21.474Z,30.77
2022-09-02T15:29:49.036Z,30.77
2022-09-02T15:32:15.644Z,30.75
2022-09-02T15:34:42.199Z,30.75
2022-09-02T15:37:12.677Z,30.75
2022-09-02T15:39:40.277Z,30.76
2022-09-02T15:42:07.142Z,30.76
2022-09-02T15:44:33.662Z,30.75
2022-09-02T15:47:00.178Z,30.75
2022-09-02T15:49:27.469Z,30.76
2022-09-02T15:51:55.066Z,30.78
2022-09-02T15:54:23.479Z,30.81
2022-09-02T15:56:55.163Z,30.83
2022-09-02T15:59:22.197Z,30.87
2022-09-02T16:01:58.756Z,30.85
2022-09-02T16:04:27.187Z,30.84
2022-09-02T16:06:54.018Z,30.82
2022-09-02T16:09:20.849Z,30.78
2022-09-02T16:11:50.357Z,30.70
2022-09-02T16:14:20.547Z,30.65
2022-09-02T16:16:48.257Z,30.61
2022-09-02T16:19:14.813Z,30.54
2022-09-02T16:21:41.345Z,30.51
2022-09-02T16:24:08.897Z,30.46
2022-09-02T16:26:40.142Z,30.45
2022-09-02T16:29:13.723Z,30.44
2022-09-02T16:31:42.076Z,30.46
2022-09-02T16:34:12.057Z,30.48
2022-09-02T16:36:44.370Z,30.47
2022-09-02T16:39:12.970Z,30.50
2022-09-02T16:41:44.415Z,30.48
2022-09-02T16:44:13.915Z,30.45
2022-09-02T16:46:43.031Z,30.46
2022-09-02T16:49:11.284Z,30.44
2022-09-02T16:51:40.738Z,30.41
2022-09-02T16:54:09.417Z,30.40
2022-09-02T16:56:44.180Z,30.38
2022-09-02T16:59:12.759Z,30.34
2022-09-02T17:01:40.535Z,30.30
2022-09-02T17:04:08.686Z,30.26
2022-09-02T17:06:39.917Z,30.21
2022-09-02T17:09:09.055Z,30.14
2022-09-02T17:11:39.634Z,30.08
2022-09-02T17:14:11.914Z,30.00
2022-09-02T17:16:47.569Z,29.94
2022-09-02T17:19:20.995Z,29.89
2022-09-02T17:21:50.790Z,29.84
2022-09-02T17:24:19.205Z,29.78
2022-09-02T17:26:46.796Z,29.77
2022-09-02T17:29:37.952Z,29.76
2022-09-02T17:32:03.629Z,29.70
2022-09-02T17:34:33.256Z,29.65
2022-09-02T17:36:59.798Z,29.59
2022-09-02T17:39:26.831Z,29.54
2022-09-02T17:41:57.443Z,29.50
2022-09-02T17:44:34.955Z,29.44
2022-09-02T17:47:07.663Z,29.39
2022-09-02T17:49:38.076Z,29.37
2022-09-02T17:52:06.838Z,29.32
2022-09-02T17:54:34.636Z,29.28
2022-09-02T17:57:19.758Z,29.21
2022-09-02T18:00:07.709Z,29.16
2022-09-02T18:02:43.891Z,29.14
2022-09-02T18:05:16.580Z,29.09
2022-09-02T18:07:49.853Z,29.05
2022-09-02T18:10:17.815Z,29.05
2022-09-02T18:12:44.430Z,29.00
2022-09-02T18:15:17.099Z,28.93
2022-09-02T18:17:48.551Z,28.90
2022-09-02T18:20:47.295Z,28.81
2022-09-02T18:23:21.028Z,28.77
2022-09-02T18:26:24.276Z,28.72
2022-09-02T18:29:22.344Z,28.68
2022-09-02T18:32:26.208Z,28.65
2022-09-02T18:35:17.793Z,28.59
2022-09-02T18:38:04.293Z,28.60
2022-09-02T18:40:45.681Z,28.53
2022-09-02T18:43:31.146Z,28.51
2022-09-02T18:46:01.032Z,28.46
2022-09-02T18:48:38.584Z,28.39
2022-09-02T18:51:31.402Z,28.38
2022-09-02T18:54:08.879Z,28.34
2022-09-02T18:56:39.142Z,28.32
2022-09-02T18:59:11.557Z,28.26
2022-09-02T19:01:46.114Z,28.19
2022-09-02T19:04:14.367Z,28.18
2022-09-02T19:06:41.525Z,28.12
2022-09-02T19:09:12.936Z,28.06
2022-09-02T19:11:40.155Z,28.03
2022-09-02T19:14:06.576Z,27.98
2022-09-02T19:16:36.157Z,27.92
2022-09-02T19:19:04.247Z,27.87
2022-09-02T19:21:39.212Z,27.81
2022-09-02T19:24:10.173Z,27.79
2022-09-02T19:26:38.254Z,27.74
2022-09-02T19:29:12.121Z,27.69
2022-09-02T19:31:40.881Z,27.66
2022-09-02T19:34:08.282Z,27.63
2022-09-02T19:36:39.019Z,27.60
2022-09-02T19:39:05.556Z,27.55
2022-09-02T19:41:32.070Z,27.53
2022-09-02T19:44:00.054Z,27.47
2022-09-02T19:49:13.428Z,27.39
2022-09-02T19:51:41.036Z,27.34
2022-09-02T19:54:08.553Z,27.30
2022-09-02T19:56:35.116Z,27.26
2022-09-02T19:59:01.947Z,27.21
2022-09-02T20:01:28.508Z,27.17
2022-09-02T20:03:55.032Z,27.13
2022-09-02T20:06:21.526Z,27.08
2022-09-02T20:08:48.025Z,27.05
2022-09-02T20:11:15.078Z,27.00
2022-09-02T20:13:41.990Z,26.96
2022-09-02T20:16:16.929Z,26.88
2022-09-02T20:18:48.321Z,26.86
2022-09-02T20:21:30.907Z,26.78
2022-09-02T20:24:08.192Z,26.73
2022-09-02T20:27:11.076Z,26.67
2022-09-02T20:29:46.597Z,26.63
2022-09-02T20:32:30.344Z,26.53
2022-09-02T20:35:25.810Z,26.45
2022-09-02T20:38:20.257Z,26.37
2022-09-02T20:41:18.706Z,26.29
2022-09-02T20:44:06.883Z,26.22
2022-09-02T20:46:54.900Z,26.13
2022-09-02T20:49:30.871Z,26.11
2022-09-02T20:52:16.188Z,26.00
2022-09-02T20:54:58.387Z,25.92
2022-09-02T20:57:46.271Z,25.84
2022-09-02T21:00:20.428Z,25.79
2022-09-02T21:03:05.279Z,25.70
2022-09-02T21:05:38.565Z,25.67
2022-09-02T21:08:08.535Z,25.63
2022-09-02T21:10:43.044Z,25.58
2022-09-02T21:13:18.092Z,25.53
2022-09-02T21:16:00.277Z,25.48
2022-09-02T21:18:59.213Z,25.44
2022-09-02T21:21:36.960Z,25.42
2022-09-02T21:24:14.154Z,25.40
2022-09-02T21:26:49.173Z,25.37
2022-09-02T21:29:18.848Z,25.34
2022-09-02T21:31:52.533Z,25.30
2022-09-02T21:34:33.583Z,25.26
2022-09-02T21:37:03.808Z,25.26
2022-09-02T21:39:35.249Z,25.23
2022-09-02T21:42:11.125Z,25.20
2022-09-02T21:44:43.576Z,25.19
2022-09-02T21:47:19.441Z,25.16
2022-09-02T21:49:49.457Z,25.15
2022-09-02T21:52:52.978Z,25.09
2022-09-02T21:55:35.422Z,25.06
2022-09-02T21:58:16.626Z,25.06
2022-09-02T22:00:48.750Z,25.05
2022-09-02T22:03:37.082Z,24.99
2022-09-02T22:06:23.740Z,25.03
2022-09-02T22:09:04.205Z,25.02
2022-09-02T22:11:35.711Z,25.00
2022-09-02T22:14:16.334Z,24.92
2022-09-02T22:16:54.554Z,24.88
2022-09-02T22:19:30.324Z,24.89
2022-09-02T22:22:06.175Z,24.85
2022-09-02T22:24:37.104Z,24.83
2022-09-02T22:27:15.956Z,24.76
2022-09-02T22:30:11.538Z,24.74
2022-09-02T22:32:43.100Z,24.72
2022-09-02T22:35:34.395Z,24.64
2022-09-02T22:38:30.824Z,24.61
2022-09-02T22:41:20.148Z,24.56
2022-09-02T22:43:52.217Z,24.53
2022-09-02T22:46:46.458Z,24.49
2022-09-02T22:49:49.271Z,24.44
2022-09-02T22:52:40.228Z,24.43
2022-09-02T22:55:13.102Z,24.39
2022-09-02T22:57:52.223Z,24.30
2022-09-02T23:00:20.043Z,24.31
2022-09-02T23:02:53.308Z,24.28
2022-09-02T23:06:05.287Z,24.21
2022-09-02T23:08:36.957Z,24.21
2022-09-02T23:11:16.592Z,24.14
2022-09-02T23:14:26.415Z,24.12
2022-09-02T23:17:18.238Z,24.12
2022-09-02T23:20:05.728Z,24.10
2022-09-02T23:23:04.336Z,24.08
2022-09-02T23:25:34.656Z,24.03
2022-09-02T23:28:19.227Z,23.98
2022-09-02T23:31:07.305Z,23.93
2022-09-02T23:33:49.422Z,23.91
2022-09-02T23:36:36.008Z,23.89
2022-09-02T23:39:11.649Z,23.87
2022-09-02T23:41:41.805Z,23.85
2022-09-02T23:44:09.860Z,23.83
2022-09-02T23:47:05.564Z,23.76
2022-09-02T23:50:03.644Z,23.74
2022-09-02T23:52:59.888Z,23.71
2022-09-02T23:55:35.533Z,23.70
2022-09-02T23:58:20.867Z,23.67
